sensor_id;sensor_type;location;lat;lon;timestamp;P1;durP1;ratioP1;P2;durP2;ratioP2
15946;SDS011;8072;52.554;7.966;2023-07-22T00:01:25;8.70;;;5.43;;
15946;SDS011;8072;52.554;7.966;2023-07-22T00:03:51;10.53;;;6.03;;
15946;SDS011;8072;52.554;7.966;2023-07-22T00:06:17;13.90;;;5.50;;
15946;SDS011;8072;52.554;7.966;2023-07-22T00:08:42;12.97;;;5.77;;
15946;SDS011;8072;52.554;7.966;2023-07-22T00:11:08;10.93;;;5.17;;
15946;SDS011;8072;52.554;7.966;2023-07-22T00:13:34;10.43;;;5.80;;
15946;SDS011;8072;52.554;7.966;2023-07-22T00:16:00;8.93;;;5.07;;
15946;SDS011;8072;52.554;7.966;2023-07-22T00:18:29;10.23;;;5.70;;
15946;SDS011;8072;52.554;7.966;2023-07-22T00:20:56;8.73;;;5.30;;
15946;SDS011;8072;52.554;7.966;2023-07-22T00:23:22;9.17;;;5.60;;
15946;SDS011;8072;52.554;7.966;2023-07-22T00:25:48;8.77;;;5.13;;
15946;SDS011;8072;52.554;7.966;2023-07-22T00:28:14;9.97;;;5.37;;
15946;SDS011;8072;52.554;7.966;2023-07-22T00:30:41;10.30;;;4.97;;
15946;SDS011;8072;52.554;7.966;2023-07-22T00:33:07;12.23;;;5.43;;
15946;SDS011;8072;52.554;7.966;2023-07-22T00:35:34;9.47;;;5.27;;
15946;SDS011;8072;52.554;7.966;2023-07-22T00:38:00;9.97;;;5.30;;
15946;SDS011;8072;52.554;7.966;2023-07-22T00:40:26;10.87;;;5.00;;
15946;SDS011;8072;52.554;7.966;2023-07-22T00:42:53;8.73;;;5.10;;
15946;SDS011;8072;52.554;7.966;2023-07-22T00:45:19;10.37;;;5.60;;
15946;SDS011;8072;52.554;7.966;2023-07-22T00:47:44;11.33;;;5.50;;
15946;SDS011;8072;52.554;7.966;2023-07-22T00:50:11;10.17;;;5.37;;
15946;SDS011;8072;52.554;7.966;2023-07-22T00:52:37;10.30;;;5.63;;
15946;SDS011;8072;52.554;7.966;2023-07-22T00:55:04;15.27;;;6.17;;
15946;SDS011;8072;52.554;7.966;2023-07-22T00:57:30;11.40;;;6.67;;
15946;SDS011;8072;52.554;7.966;2023-07-22T00:59:56;11.77;;;5.30;;
15946;SDS011;8072;52.554;7.966;2023-07-22T01:02:22;11.00;;;5.77;;
15946;SDS011;8072;52.554;7.966;2023-07-22T01:04:48;10.50;;;5.40;;
15946;SDS011;8072;52.554;7.966;2023-07-22T01:07:15;10.47;;;5.53;;
15946;SDS011;8072;52.554;7.966;2023-07-22T01:09:42;14.17;;;5.60;;
15946;SDS011;8072;52.554;7.966;2023-07-22T01:12:08;11.10;;;5.70;;
15946;SDS011;8072;52.554;7.966;2023-07-22T01:14:36;10.43;;;5.73;;
15946;SDS011;8072;52.554;7.966;2023-07-22T01:17:03;12.03;;;5.60;;
15946;SDS011;8072;52.554;7.966;2023-07-22T01:19:30;11.17;;;6.60;;
15946;SDS011;8072;52.554;7.966;2023-07-22T01:21:59;14.27;;;6.20;;
15946;SDS011;8072;52.554;7.966;2023-07-22T01:24:28;11.93;;;6.33;;
15946;SDS011;8072;52.554;7.966;2023-07-22T01:26:54;10.87;;;5.97;;
15946;SDS011;8072;52.554;7.966;2023-07-22T01:29:21;11.23;;;5.73;;
15946;SDS011;8072;52.554;7.966;2023-07-22T01:31:50;12.70;;;7.03;;
15946;SDS011;8072;52.554;7.966;2023-07-22T01:34:18;10.07;;;6.03;;
15946;SDS011;8072;52.554;7.966;2023-07-22T01:36:45;12.20;;;6.37;;
15946;SDS011;8072;52.554;7.966;2023-07-22T01:39:15;16.07;;;6.43;;
15946;SDS011;8072;52.554;7.966;2023-07-22T01:41:42;12.93;;;6.30;;
15946;SDS011;8072;52.554;7.966;2023-07-22T01:44:08;12.90;;;6.43;;
15946;SDS011;8072;52.554;7.966;2023-07-22T01:46:34;12.93;;;5.67;;
15946;SDS011;8072;52.554;7.966;2023-07-22T01:49:01;14.37;;;6.67;;
15946;SDS011;8072;52.554;7.966;2023-07-22T01:51:30;17.00;;;6.40;;
15946;SDS011;8072;52.554;7.966;2023-07-22T01:53:56;13.47;;;6.80;;
15946;SDS011;8072;52.554;7.966;2023-07-22T01:56:22;14.73;;;6.90;;
15946;SDS011;8072;52.554;7.966;2023-07-22T01:58:48;13.73;;;7.03;;
15946;SDS011;8072;52.554;7.966;2023-07-22T02:01:13;14.40;;;6.17;;
15946;SDS011;8072;52.554;7.966;2023-07-22T02:03:41;15.10;;;6.53;;
15946;SDS011;8072;52.554;7.966;2023-07-22T02:06:07;12.30;;;6.47;;
15946;SDS011;8072;52.554;7.966;2023-07-22T02:08:33;17.23;;;7.80;;
15946;SDS011;8072;52.554;7.966;2023-07-22T02:11:02;15.90;;;6.67;;
15946;SDS011;8072;52.554;7.966;2023-07-22T02:13:33;11.83;;;6.10;;
15946;SDS011;8072;52.554;7.966;2023-07-22T02:16:01;12.00;;;6.00;;
15946;SDS011;8072;52.554;7.966;2023-07-22T02:18:27;16.67;;;6.90;;
15946;SDS011;8072;52.554;7.966;2023-07-22T02:20:53;12.83;;;6.67;;
15946;SDS011;8072;52.554;7.966;2023-07-22T02:23:20;13.03;;;6.57;;
15946;SDS011;8072;52.554;7.966;2023-07-22T02:25:49;11.93;;;6.57;;
15946;SDS011;8072;52.554;7.966;2023-07-22T02:28:16;13.83;;;7.07;;
15946;SDS011;8072;52.554;7.966;2023-07-22T02:30:46;13.07;;;7.03;;
15946;SDS011;8072;52.554;7.966;2023-07-22T02:33:12;10.43;;;6.20;;
15946;SDS011;8072;52.554;7.966;2023-07-22T02:35:40;13.90;;;6.90;;
15946;SDS011;8072;52.554;7.966;2023-07-22T02:38:06;12.00;;;6.60;;
15946;SDS011;8072;52.554;7.966;2023-07-22T02:40:39;12.63;;;6.50;;
15946;SDS011;8072;52.554;7.966;2023-07-22T02:43:05;15.57;;;7.23;;
15946;SDS011;8072;52.554;7.966;2023-07-22T02:45:32;14.17;;;7.47;;
15946;SDS011;8072;52.554;7.966;2023-07-22T02:47:59;10.67;;;7.03;;
15946;SDS011;8072;52.554;7.966;2023-07-22T02:50:25;13.83;;;6.63;;
15946;SDS011;8072;52.554;7.966;2023-07-22T02:52:51;14.17;;;6.90;;
15946;SDS011;8072;52.554;7.966;2023-07-22T02:55:17;16.20;;;7.57;;
15946;SDS011;8072;52.554;7.966;2023-07-22T02:57:46;11.93;;;7.20;;
15946;SDS011;8072;52.554;7.966;2023-07-22T03:00:13;13.80;;;6.87;;
15946;SDS011;8072;52.554;7.966;2023-07-22T03:02:58;11.40;;;6.67;;
15946;SDS011;8072;52.554;7.966;2023-07-22T03:05:26;12.43;;;6.57;;
15946;SDS011;8072;52.554;7.966;2023-07-22T03:07:56;12.87;;;7.03;;
15946;SDS011;8072;52.554;7.966;2023-07-22T03:10:23;12.93;;;6.50;;
15946;SDS011;8072;52.554;7.966;2023-07-22T03:12:51;12.17;;;6.57;;
15946;SDS011;8072;52.554;7.966;2023-07-22T03:15:24;12.20;;;6.53;;
15946;SDS011;8072;52.554;7.966;2023-07-22T03:17:51;12.80;;;6.77;;
15946;SDS011;8072;52.554;7.966;2023-07-22T03:20:18;11.93;;;7.40;;
15946;SDS011;8072;52.554;7.966;2023-07-22T03:22:44;12.17;;;6.80;;
15946;SDS011;8072;52.554;7.966;2023-07-22T03:25:11;13.33;;;6.67;;
15946;SDS011;8072;52.554;7.966;2023-07-22T03:27:38;11.97;;;6.63;;
15946;SDS011;8072;52.554;7.966;2023-07-22T03:30:05;11.93;;;7.27;;
15946;SDS011;8072;52.554;7.966;2023-07-22T03:32:41;13.17;;;6.90;;
15946;SDS011;8072;52.554;7.966;2023-07-22T03:35:08;12.90;;;6.70;;
15946;SDS011;8072;52.554;7.966;2023-07-22T03:37:37;12.20;;;6.93;;
15946;SDS011;8072;52.554;7.966;2023-07-22T03:40:03;16.03;;;7.60;;
15946;SDS011;8072;52.554;7.966;2023-07-22T03:42:44;12.90;;;7.73;;
15946;SDS011;8072;52.554;7.966;2023-07-22T03:45:14;15.70;;;7.60;;
15946;SDS011;8072;52.554;7.966;2023-07-22T03:47:44;13.73;;;6.90;;
15946;SDS011;8072;52.554;7.966;2023-07-22T03:50:11;14.70;;;8.40;;
15946;SDS011;8072;52.554;7.966;2023-07-22T03:52:37;14.27;;;7.77;;
15946;SDS011;8072;52.554;7.966;2023-07-22T03:55:03;14.83;;;7.30;;
15946;SDS011;8072;52.554;7.966;2023-07-22T03:57:30;15.27;;;7.57;;
15946;SDS011;8072;52.554;7.966;2023-07-22T03:59:57;19.50;;;8.53;;
15946;SDS011;8072;52.554;7.966;2023-07-22T04:02:23;16.17;;;7.10;;
15946;SDS011;8072;52.554;7.966;2023-07-22T04:04:53;15.83;;;7.70;;
15946;SDS011;8072;52.554;7.966;2023-07-22T04:07:19;14.93;;;7.23;;
15946;SDS011;8072;52.554;7.966;2023-07-22T04:09:46;14.93;;;7.17;;
15946;SDS011;8072;52.554;7.966;2023-07-22T04:12:12;17.13;;;7.63;;
15946;SDS011;8072;52.554;7.966;2023-07-22T04:14:38;14.10;;;7.33;;
15946;SDS011;8072;52.554;7.966;2023-07-22T04:17:04;14.93;;;7.40;;
15946;SDS011;8072;52.554;7.966;2023-07-22T04:19:30;19.00;;;8.90;;
15946;SDS011;8072;52.554;7.966;2023-07-22T04:21:56;13.80;;;7.73;;
15946;SDS011;8072;52.554;7.966;2023-07-22T04:24:22;17.60;;;7.80;;
15946;SDS011;8072;52.554;7.966;2023-07-22T04:26:50;13.97;;;8.40;;
15946;SDS011;8072;52.554;7.966;2023-07-22T04:29:16;15.67;;;7.57;;
15946;SDS011;8072;52.554;7.966;2023-07-22T04:31:42;17.13;;;7.90;;
15946;SDS011;8072;52.554;7.966;2023-07-22T04:34:08;15.00;;;7.83;;
15946;SDS011;8072;52.554;7.966;2023-07-22T04:36:34;14.90;;;8.47;;
15946;SDS011;8072;52.554;7.966;2023-07-22T04:39:02;17.53;;;8.07;;
15946;SDS011;8072;52.554;7.966;2023-07-22T04:41:30;15.97;;;8.67;;
15946;SDS011;8072;52.554;7.966;2023-07-22T04:43:56;18.33;;;8.03;;
15946;SDS011;8072;52.554;7.966;2023-07-22T04:46:23;15.23;;;8.13;;
15946;SDS011;8072;52.554;7.966;2023-07-22T04:48:49;14.77;;;8.63;;
15946;SDS011;8072;52.554;7.966;2023-07-22T04:51:15;17.50;;;8.97;;
15946;SDS011;8072;52.554;7.966;2023-07-22T04:53:41;14.40;;;7.23;;
15946;SDS011;8072;52.554;7.966;2023-07-22T04:56:06;16.97;;;8.53;;
15946;SDS011;8072;52.554;7.966;2023-07-22T04:58:32;16.40;;;7.90;;
15946;SDS011;8072;52.554;7.966;2023-07-22T05:00:58;14.33;;;8.10;;
15946;SDS011;8072;52.554;7.966;2023-07-22T05:03:23;13.63;;;8.17;;
15946;SDS011;8072;52.554;7.966;2023-07-22T05:05:51;13.50;;;8.37;;
15946;SDS011;8072;52.554;7.966;2023-07-22T05:08:17;18.07;;;8.90;;
15946;SDS011;8072;52.554;7.966;2023-07-22T05:10:43;17.37;;;9.87;;
15946;SDS011;8072;52.554;7.966;2023-07-22T05:13:08;14.37;;;8.30;;
15946;SDS011;8072;52.554;7.966;2023-07-22T05:15:34;15.63;;;9.07;;
15946;SDS011;8072;52.554;7.966;2023-07-22T05:18:00;16.87;;;8.97;;
15946;SDS011;8072;52.554;7.966;2023-07-22T05:20:27;19.20;;;8.40;;
15946;SDS011;8072;52.554;7.966;2023-07-22T05:22:52;17.20;;;8.73;;
15946;SDS011;8072;52.554;7.966;2023-07-22T05:25:18;15.47;;;8.43;;
15946;SDS011;8072;52.554;7.966;2023-07-22T05:27:44;16.77;;;8.70;;
15946;SDS011;8072;52.554;7.966;2023-07-22T05:30:10;16.20;;;8.83;;
15946;SDS011;8072;52.554;7.966;2023-07-22T05:32:36;15.33;;;9.50;;
15946;SDS011;8072;52.554;7.966;2023-07-22T05:35:01;14.80;;;8.03;;
15946;SDS011;8072;52.554;7.966;2023-07-22T05:37:30;19.03;;;9.10;;
15946;SDS011;8072;52.554;7.966;2023-07-22T05:39:56;19.67;;;8.47;;
15946;SDS011;8072;52.554;7.966;2023-07-22T05:42:21;15.70;;;9.37;;
15946;SDS011;8072;52.554;7.966;2023-07-22T05:44:47;17.40;;;9.50;;
15946;SDS011;8072;52.554;7.966;2023-07-22T05:47:14;21.10;;;9.33;;
15946;SDS011;8072;52.554;7.966;2023-07-22T05:49:39;18.87;;;9.27;;
15946;SDS011;8072;52.554;7.966;2023-07-22T05:52:05;18.00;;;9.83;;
15946;SDS011;8072;52.554;7.966;2023-07-22T05:54:31;16.90;;;9.87;;
15946;SDS011;8072;52.554;7.966;2023-07-22T05:56:57;19.07;;;9.90;;
15946;SDS011;8072;52.554;7.966;2023-07-22T05:59:23;21.30;;;10.03;;
15946;SDS011;8072;52.554;7.966;2023-07-22T06:01:49;17.53;;;9.80;;
15946;SDS011;8072;52.554;7.966;2023-07-22T06:04:15;18.03;;;10.07;;
15946;SDS011;8072;52.554;7.966;2023-07-22T06:06:40;19.03;;;9.73;;
15946;SDS011;8072;52.554;7.966;2023-07-22T06:09:06;20.10;;;9.83;;
15946;SDS011;8072;52.554;7.966;2023-07-22T06:11:32;17.57;;;9.13;;
15946;SDS011;8072;52.554;7.966;2023-07-22T06:13:57;17.13;;;9.87;;
15946;SDS011;8072;52.554;7.966;2023-07-22T06:16:23;17.30;;;10.03;;
15946;SDS011;8072;52.554;7.966;2023-07-22T06:18:49;18.80;;;9.83;;
15946;SDS011;8072;52.554;7.966;2023-07-22T06:21:14;20.73;;;10.23;;
15946;SDS011;8072;52.554;7.966;2023-07-22T06:23:41;17.87;;;9.93;;
15946;SDS011;8072;52.554;7.966;2023-07-22T06:26:06;19.73;;;10.13;;
15946;SDS011;8072;52.554;7.966;2023-07-22T06:28:32;19.77;;;11.47;;
15946;SDS011;8072;52.554;7.966;2023-07-22T06:30:58;21.93;;;11.43;;
15946;SDS011;8072;52.554;7.966;2023-07-22T06:33:24;21.37;;;11.33;;
15946;SDS011;8072;52.554;7.966;2023-07-22T06:35:49;23.20;;;11.10;;
15946;SDS011;8072;52.554;7.966;2023-07-22T06:38:15;19.50;;;11.43;;
15946;SDS011;8072;52.554;7.966;2023-07-22T06:40:41;24.17;;;10.97;;
15946;SDS011;8072;52.554;7.966;2023-07-22T06:43:06;21.30;;;11.50;;
15946;SDS011;8072;52.554;7.966;2023-07-22T06:45:32;20.93;;;12.10;;
15946;SDS011;8072;52.554;7.966;2023-07-22T06:47:58;22.37;;;12.03;;
15946;SDS011;8072;52.554;7.966;2023-07-22T06:50:24;20.90;;;10.87;;
15946;SDS011;8072;52.554;7.966;2023-07-22T06:52:50;24.57;;;11.30;;
15946;SDS011;8072;52.554;7.966;2023-07-22T06:55:16;21.03;;;11.87;;
15946;SDS011;8072;52.554;7.966;2023-07-22T06:57:41;21.77;;;11.87;;
15946;SDS011;8072;52.554;7.966;2023-07-22T07:00:08;24.40;;;11.80;;
15946;SDS011;8072;52.554;7.966;2023-07-22T07:02:35;24.93;;;11.70;;
15946;SDS011;8072;52.554;7.966;2023-07-22T07:05:01;19.07;;;10.70;;
15946;SDS011;8072;52.554;7.966;2023-07-22T07:07:27;19.30;;;11.33;;
15946;SDS011;8072;52.554;7.966;2023-07-22T07:09:53;21.07;;;11.00;;
15946;SDS011;8072;52.554;7.966;2023-07-22T07:12:18;25.63;;;11.67;;
15946;SDS011;8072;52.554;7.966;2023-07-22T07:14:45;20.10;;;10.47;;
15946;SDS011;8072;52.554;7.966;2023-07-22T07:17:11;20.37;;;10.57;;
15946;SDS011;8072;52.554;7.966;2023-07-22T07:19:37;23.57;;;10.53;;
15946;SDS011;8072;52.554;7.966;2023-07-22T07:22:02;24.40;;;10.70;;
15946;SDS011;8072;52.554;7.966;2023-07-22T07:24:28;19.20;;;11.20;;
15946;SDS011;8072;52.554;7.966;2023-07-22T07:26:54;22.03;;;10.83;;
15946;SDS011;8072;52.554;7.966;2023-07-22T07:29:20;20.97;;;10.27;;
15946;SDS011;8072;52.554;7.966;2023-07-22T07:31:46;20.33;;;10.93;;
15946;SDS011;8072;52.554;7.966;2023-07-22T07:34:11;21.23;;;10.90;;
15946;SDS011;8072;52.554;7.966;2023-07-22T07:36:37;24.63;;;11.40;;
15946;SDS011;8072;52.554;7.966;2023-07-22T07:39:04;23.17;;;12.07;;
15946;SDS011;8072;52.554;7.966;2023-07-22T07:41:32;22.97;;;11.90;;
15946;SDS011;8072;52.554;7.966;2023-07-22T07:43:58;22.80;;;12.37;;
15946;SDS011;8072;52.554;7.966;2023-07-22T07:46:26;22.50;;;12.13;;
15946;SDS011;8072;52.554;7.966;2023-07-22T07:48:53;22.23;;;11.43;;
15946;SDS011;8072;52.554;7.966;2023-07-22T07:51:21;22.57;;;11.80;;
15946;SDS011;8072;52.554;7.966;2023-07-22T07:53:50;21.87;;;11.00;;
15946;SDS011;8072;52.554;7.966;2023-07-22T07:56:17;21.60;;;11.17;;
15946;SDS011;8072;52.554;7.966;2023-07-22T07:58:44;20.10;;;11.60;;
15946;SDS011;8072;52.554;7.966;2023-07-22T08:01:11;21.63;;;10.90;;
15946;SDS011;8072;52.554;7.966;2023-07-22T08:03:38;24.20;;;11.03;;
15946;SDS011;8072;52.554;7.966;2023-07-22T08:06:04;19.80;;;10.53;;
15946;SDS011;8072;52.554;7.966;2023-07-22T08:08:31;24.03;;;11.07;;
15946;SDS011;8072;52.554;7.966;2023-07-22T08:11:08;21.87;;;10.27;;
15946;SDS011;8072;52.554;7.966;2023-07-22T08:13:35;19.00;;;10.30;;
15946;SDS011;8072;52.554;7.966;2023-07-22T08:16:03;18.63;;;10.30;;
15946;SDS011;8072;52.554;7.966;2023-07-22T08:18:30;21.17;;;11.63;;
15946;SDS011;8072;52.554;7.966;2023-07-22T08:20:57;20.93;;;11.57;;
15946;SDS011;8072;52.554;7.966;2023-07-22T08:23:23;21.57;;;11.17;;
15946;SDS011;8072;52.554;7.966;2023-07-22T08:25:49;19.97;;;10.47;;
15946;SDS011;8072;52.554;7.966;2023-07-22T08:28:16;18.80;;;9.73;;
15946;SDS011;8072;52.554;7.966;2023-07-22T08:30:42;17.17;;;9.10;;
15946;SDS011;8072;52.554;7.966;2023-07-22T08:33:09;16.90;;;10.17;;
15946;SDS011;8072;52.554;7.966;2023-07-22T08:35:39;19.50;;;8.33;;
15946;SDS011;8072;52.554;7.966;2023-07-22T08:38:05;16.67;;;9.07;;
15946;SDS011;8072;52.554;7.966;2023-07-22T08:40:50;17.47;;;8.87;;
15946;SDS011;8072;52.554;7.966;2023-07-22T08:43:16;15.53;;;9.13;;
15946;SDS011;8072;52.554;7.966;2023-07-22T08:45:45;19.53;;;9.57;;
15946;SDS011;8072;52.554;7.966;2023-07-22T08:48:12;16.87;;;9.70;;
15946;SDS011;8072;52.554;7.966;2023-07-22T08:50:50;18.27;;;9.47;;
15946;SDS011;8072;52.554;7.966;2023-07-22T08:53:19;14.70;;;8.50;;
15946;SDS011;8072;52.554;7.966;2023-07-22T08:55:46;17.13;;;9.63;;
15946;SDS011;8072;52.554;7.966;2023-07-22T08:58:13;20.27;;;10.13;;
15946;SDS011;8072;52.554;7.966;2023-07-22T09:00:39;16.77;;;9.27;;
15946;SDS011;8072;52.554;7.966;2023-07-22T09:03:06;18.80;;;10.20;;
15946;SDS011;8072;52.554;7.966;2023-07-22T09:05:32;18.30;;;10.07;;
15946;SDS011;8072;52.554;7.966;2023-07-22T09:07:59;17.87;;;9.77;;
15946;SDS011;8072;52.554;7.966;2023-07-22T09:10:27;17.60;;;9.77;;
15946;SDS011;8072;52.554;7.966;2023-07-22T09:12:53;13.73;;;8.53;;
15946;SDS011;8072;52.554;7.966;2023-07-22T09:15:20;16.80;;;9.13;;
15946;SDS011;8072;52.554;7.966;2023-07-22T09:17:48;14.77;;;7.90;;
15946;SDS011;8072;52.554;7.966;2023-07-22T09:20:14;13.83;;;7.20;;
15946;SDS011;8072;52.554;7.966;2023-07-22T09:22:46;14.93;;;7.60;;
15946;SDS011;8072;52.554;7.966;2023-07-22T09:25:21;14.60;;;8.40;;
15946;SDS011;8072;52.554;7.966;2023-07-22T09:27:51;13.60;;;7.70;;
15946;SDS011;8072;52.554;7.966;2023-07-22T09:30:22;14.40;;;7.87;;
15946;SDS011;8072;52.554;7.966;2023-07-22T09:32:51;13.93;;;7.97;;
15946;SDS011;8072;52.554;7.966;2023-07-22T09:35:18;10.37;;;6.53;;
15946;SDS011;8072;52.554;7.966;2023-07-22T09:37:44;13.00;;;7.37;;
15946;SDS011;8072;52.554;7.966;2023-07-22T09:42:52;8.63;;;5.83;;
15946;SDS011;8072;52.554;7.966;2023-07-22T09:45:20;11.97;;;7.30;;
15946;SDS011;8072;52.554;7.966;2023-07-22T09:47:49;10.90;;;6.93;;
15946;SDS011;8072;52.554;7.966;2023-07-22T09:50:17;10.53;;;6.87;;
15946;SDS011;8072;52.554;7.966;2023-07-22T09:52:48;17.03;;;7.57;;
15946;SDS011;8072;52.554;7.966;2023-07-22T09:55:15;10.27;;;7.20;;
15946;SDS011;8072;52.554;7.966;2023-07-22T09:57:46;11.03;;;7.67;;
15946;SDS011;8072;52.554;7.966;2023-07-22T10:00:16;11.82;;;7.00;;
15946;SDS011;8072;52.554;7.966;2023-07-22T10:02:47;10.00;;;7.20;;
15946;SDS011;8072;52.554;7.966;2023-07-22T10:05:17;8.63;;;6.35;;
15946;SDS011;8072;52.554;7.966;2023-07-22T10:07:48;10.60;;;6.70;;
15946;SDS011;8072;52.554;7.966;2023-07-22T10:10:16;12.67;;;6.47;;
15946;SDS011;8072;52.554;7.966;2023-07-22T10:13:03;10.07;;;5.93;;
15946;SDS011;8072;52.554;7.966;2023-07-22T10:15:30;6.63;;;5.27;;
15946;SDS011;8072;52.554;7.966;2023-07-22T10:18:01;9.90;;;6.37;;
15946;SDS011;8072;52.554;7.966;2023-07-22T10:20:27;11.23;;;6.20;;
15946;SDS011;8072;52.554;7.966;2023-07-22T10:22:54;6.95;;;5.40;;
15946;SDS011;8072;52.554;7.966;2023-07-22T10:25:21;6.78;;;5.15;;
15946;SDS011;8072;52.554;7.966;2023-07-22T10:27:48;8.35;;;4.82;;
15946;SDS011;8072;52.554;7.966;2023-07-22T10:30:15;7.03;;;4.80;;
15946;SDS011;8072;52.554;7.966;2023-07-22T10:32:48;5.70;;;4.25;;
15946;SDS011;8072;52.554;7.966;2023-07-22T10:35:34;5.50;;;4.23;;
15946;SDS011;8072;52.554;7.966;2023-07-22T10:38:06;7.25;;;4.10;;
15946;SDS011;8072;52.554;7.966;2023-07-22T10:40:33;6.20;;;4.00;;
15946;SDS011;8072;52.554;7.966;2023-07-22T10:43:17;5.70;;;3.90;;
15946;SDS011;8072;52.554;7.966;2023-07-22T10:45:55;5.80;;;3.67;;
15946;SDS011;8072;52.554;7.966;2023-07-22T10:48:26;6.20;;;3.97;;
15946;SDS011;8072;52.554;7.966;2023-07-22T10:51:04;5.18;;;3.63;;
15946;SDS011;8072;52.554;7.966;2023-07-22T10:53:44;5.35;;;3.90;;
15946;SDS011;8072;52.554;7.966;2023-07-22T10:56:16;6.15;;;3.70;;
15946;SDS011;8072;52.554;7.966;2023-07-22T11:01:23;4.83;;;3.90;;
15946;SDS011;8072;52.554;7.966;2023-07-22T11:14:23;7.37;;;3.90;;
15946;SDS011;8072;52.554;7.966;2023-07-22T11:16:53;6.40;;;4.07;;
15946;SDS011;8072;52.554;7.966;2023-07-22T11:19:22;6.30;;;4.18;;
15946;SDS011;8072;52.554;7.966;2023-07-22T11:21:49;6.00;;;3.92;;
15946;SDS011;8072;52.554;7.966;2023-07-22T11:24:15;6.72;;;4.03;;
15946;SDS011;8072;52.554;7.966;2023-07-22T11:26:42;8.38;;;4.00;;
15946;SDS011;8072;52.554;7.966;2023-07-22T11:29:08;5.38;;;3.90;;
15946;SDS011;8072;52.554;7.966;2023-07-22T11:31:38;5.93;;;4.10;;
15946;SDS011;8072;52.554;7.966;2023-07-22T11:34:09;9.18;;;4.90;;
15946;SDS011;8072;52.554;7.966;2023-07-22T11:36:36;6.65;;;4.90;;
15946;SDS011;8072;52.554;7.966;2023-07-22T11:39:02;6.85;;;4.65;;
15946;SDS011;8072;52.554;7.966;2023-07-22T11:41:29;7.95;;;4.72;;
15946;SDS011;8072;52.554;7.966;2023-07-22T11:43:58;7.75;;;4.90;;
15946;SDS011;8072;52.554;7.966;2023-07-22T11:46:25;7.55;;;4.20;;
15946;SDS011;8072;52.554;7.966;2023-07-22T11:48:52;9.13;;;5.00;;
15946;SDS011;8072;52.554;7.966;2023-07-22T11:51:22;6.25;;;4.40;;
15946;SDS011;8072;52.554;7.966;2023-07-22T11:53:53;8.57;;;5.13;;
15946;SDS011;8072;52.554;7.966;2023-07-22T11:56:23;7.13;;;4.63;;
15946;SDS011;8072;52.554;7.966;2023-07-22T11:58:53;6.93;;;4.80;;
15946;SDS011;8072;52.554;7.966;2023-07-22T12:01:20;9.15;;;5.18;;
15946;SDS011;8072;52.554;7.966;2023-07-22T12:03:46;10.82;;;5.25;;
15946;SDS011;8072;52.554;7.966;2023-07-22T12:06:13;8.75;;;5.72;;
15946;SDS011;8072;52.554;7.966;2023-07-22T12:08:43;8.07;;;5.68;;
15946;SDS011;8072;52.554;7.966;2023-07-22T12:11:17;7.95;;;5.55;;
15946;SDS011;8072;52.554;7.966;2023-07-22T12:14:04;9.32;;;4.90;;
15946;SDS011;8072;52.554;7.966;2023-07-22T12:16:29;15.55;;;6.53;;
15946;SDS011;8072;52.554;7.966;2023-07-22T12:18:55;9.95;;;6.05;;
15946;SDS011;8072;52.554;7.966;2023-07-22T12:21:21;9.77;;;5.93;;
15946;SDS011;8072;52.554;7.966;2023-07-22T12:23:47;12.35;;;6.25;;
15946;SDS011;8072;52.554;7.966;2023-07-22T12:26:13;8.82;;;5.95;;
15946;SDS011;8072;52.554;7.966;2023-07-22T12:28:38;11.95;;;6.05;;
15946;SDS011;8072;52.554;7.966;2023-07-22T12:31:04;11.23;;;6.45;;
15946;SDS011;8072;52.554;7.966;2023-07-22T12:33:30;8.93;;;6.38;;
15946;SDS011;8072;52.554;7.966;2023-07-22T12:35:56;11.07;;;6.47;;
15946;SDS011;8072;52.554;7.966;2023-07-22T12:38:22;10.43;;;6.95;;
15946;SDS011;8072;52.554;7.966;2023-07-22T12:40:49;10.65;;;6.47;;
15946;SDS011;8072;52.554;7.966;2023-07-22T12:43:14;10.85;;;6.57;;
15946;SDS011;8072;52.554;7.966;2023-07-22T12:45:40;13.88;;;7.18;;
15946;SDS011;8072;52.554;7.966;2023-07-22T12:48:06;10.65;;;6.43;;
15946;SDS011;8072;52.554;7.966;2023-07-22T12:50:32;13.07;;;6.68;;
15946;SDS011;8072;52.554;7.966;2023-07-22T12:52:58;9.10;;;6.53;;
15946;SDS011;8072;52.554;7.966;2023-07-22T12:55:24;11.27;;;6.25;;
15946;SDS011;8072;52.554;7.966;2023-07-22T12:57:50;9.80;;;6.03;;
15946;SDS011;8072;52.554;7.966;2023-07-22T13:00:16;9.60;;;6.15;;
15946;SDS011;8072;52.554;7.966;2023-07-22T13:02:42;13.85;;;8.73;;
15946;SDS011;8072;52.554;7.966;2023-07-22T13:05:08;9.98;;;5.97;;
15946;SDS011;8072;52.554;7.966;2023-07-22T13:07:34;9.32;;;5.75;;
15946;SDS011;8072;52.554;7.966;2023-07-22T13:10:00;10.35;;;6.07;;
15946;SDS011;8072;52.554;7.966;2023-07-22T13:12:28;7.53;;;5.28;;
15946;SDS011;8072;52.554;7.966;2023-07-22T13:14:54;6.95;;;4.57;;
15946;SDS011;8072;52.554;7.966;2023-07-22T13:17:20;6.43;;;4.63;;
15946;SDS011;8072;52.554;7.966;2023-07-22T13:19:46;9.15;;;4.95;;
15946;SDS011;8072;52.554;7.966;2023-07-22T13:22:11;8.95;;;4.93;;
15946;SDS011;8072;52.554;7.966;2023-07-22T13:24:37;9.00;;;4.35;;
15946;SDS011;8072;52.554;7.966;2023-07-22T13:27:03;7.07;;;4.00;;
15946;SDS011;8072;52.554;7.966;2023-07-22T13:29:29;7.35;;;4.25;;
15946;SDS011;8072;52.554;7.966;2023-07-22T13:31:55;7.95;;;4.43;;
15946;SDS011;8072;52.554;7.966;2023-07-22T13:34:21;8.43;;;4.47;;
15946;SDS011;8072;52.554;7.966;2023-07-22T13:36:47;6.95;;;4.28;;
15946;SDS011;8072;52.554;7.966;2023-07-22T13:39:13;5.68;;;3.90;;
15946;SDS011;8072;52.554;7.966;2023-07-22T13:41:39;5.90;;;3.92;;
15946;SDS011;8072;52.554;7.966;2023-07-22T13:44:05;7.20;;;4.10;;
15946;SDS011;8072;52.554;7.966;2023-07-22T13:46:30;5.60;;;3.60;;
15946;SDS011;8072;52.554;7.966;2023-07-22T13:48:56;6.70;;;4.00;;
15946;SDS011;8072;52.554;7.966;2023-07-22T13:51:22;6.65;;;3.75;;
15946;SDS011;8072;52.554;7.966;2023-07-22T13:53:48;11.63;;;4.65;;
15946;SDS011;8072;52.554;7.966;2023-07-22T13:56:14;5.70;;;4.15;;
15946;SDS011;8072;52.554;7.966;2023-07-22T13:58:39;5.03;;;3.53;;
15946;SDS011;8072;52.554;7.966;2023-07-22T14:01:05;7.75;;;4.13;;
15946;SDS011;8072;52.554;7.966;2023-07-22T14:03:31;6.72;;;3.92;;
15946;SDS011;8072;52.554;7.966;2023-07-22T14:05:58;8.65;;;4.10;;
15946;SDS011;8072;52.554;7.966;2023-07-22T14:08:24;8.30;;;3.80;;
15946;SDS011;8072;52.554;7.966;2023-07-22T14:10:49;8.18;;;3.70;;
15946;SDS011;8072;52.554;7.966;2023-07-22T14:13:15;6.68;;;3.83;;
15946;SDS011;8072;52.554;7.966;2023-07-22T14:15:41;8.50;;;3.92;;
15946;SDS011;8072;52.554;7.966;2023-07-22T14:18:07;6.45;;;4.10;;
15946;SDS011;8072;52.554;7.966;2023-07-22T14:20:32;10.02;;;4.88;;
15946;SDS011;8072;52.554;7.966;2023-07-22T14:22:58;9.38;;;5.65;;
15946;SDS011;8072;52.554;7.966;2023-07-22T14:25:24;8.88;;;5.05;;
15946;SDS011;8072;52.554;7.966;2023-07-22T14:27:50;7.80;;;4.70;;
15946;SDS011;8072;52.554;7.966;2023-07-22T14:30:15;7.38;;;5.05;;
15946;SDS011;8072;52.554;7.966;2023-07-22T14:32:41;8.60;;;5.43;;
15946;SDS011;8072;52.554;7.966;2023-07-22T14:35:07;8.37;;;5.40;;
15946;SDS011;8072;52.554;7.966;2023-07-22T14:37:33;9.10;;;5.80;;
15946;SDS011;8072;52.554;7.966;2023-07-22T14:40:00;8.77;;;5.97;;
15946;SDS011;8072;52.554;7.966;2023-07-22T14:42:26;9.67;;;6.33;;
15946;SDS011;8072;52.554;7.966;2023-07-22T14:44:52;11.85;;;6.07;;
15946;SDS011;8072;52.554;7.966;2023-07-22T14:47:17;9.73;;;6.63;;
15946;SDS011;8072;52.554;7.966;2023-07-22T14:49:43;9.13;;;6.63;;
15946;SDS011;8072;52.554;7.966;2023-07-22T14:52:09;10.87;;;6.80;;
15946;SDS011;8072;52.554;7.966;2023-07-22T14:54:34;10.27;;;6.67;;
15946;SDS011;8072;52.554;7.966;2023-07-22T14:57:00;10.63;;;7.73;;
15946;SDS011;8072;52.554;7.966;2023-07-22T14:59:26;9.40;;;7.20;;
15946;SDS011;8072;52.554;7.966;2023-07-22T15:01:52;9.67;;;6.87;;
15946;SDS011;8072;52.554;7.966;2023-07-22T15:04:18;10.87;;;7.20;;
15946;SDS011;8072;52.554;7.966;2023-07-22T15:06:43;11.63;;;7.10;;